This is the latest recevied weather packets stored in our database for station/object iz1wiy-3. If no packets are shown the sender has not sent any weather packets the latest 10 day(s).
| Time | Temp. | Humidity | Pressure | Rain* | Wind** | Luminosity | Snow |
|---|---|---|---|---|---|---|---|
| 1777306923 | 19.44° C | 66% | 1017.7 hPa | 0 mm | - | - | - |
| 1777306863 | 20° C | 67% | 1017.7 hPa | 0 mm | - | - | - |
| 1777306744 | 20° C | 66% | 1017.7 hPa | 0 mm | - | - | - |
| 1777306323 | 20.56° C | 65% | 1017.8 hPa | 0 mm | - | - | - |
| 1777306263 | 20.56° C | 65% | 1017.8 hPa | 0 mm | - | - | - |
| 1777305964 | 20.56° C | 65% | 1017.8 hPa | 0 mm | - | - | - |
| 1777305663 | 20.56° C | 67% | 1017.9 hPa | 0 mm | - | - | - |
| 1777305483 | 20.56° C | 67% | 1017.8 hPa | 0 mm | - | - | - |
| 1777305363 | 20.56° C | 65% | 1017.8 hPa | 0 mm | - | - | - |
| 1777304343 | 21.11° C | 65% | 1018 hPa | 0 mm | - | - | - |
| 1777304283 | 20.56° C | 65% | 1018 hPa | 0 mm | - | - | - |
| 1777304223 | 20.56° C | 64% | 1018 hPa | 0 mm | - | - | - |
| 1777304163 | 20.56° C | 62% | 1018 hPa | 0 mm | - | - | - |
| 1777304043 | 20.56° C | 61% | 1018 hPa | 0 mm | - | - | - |
| 1777303983 | 20.56° C | 62% | 1018 hPa | 0 mm | - | - | - |
| 1777303923 | 20.56° C | 62% | 1018 hPa | 0 mm | - | - | - |
| 1777303863 | 21.11° C | 63% | 1017.9 hPa | 0 mm | - | - | - |
| 1777303804 | 21.11° C | 62% | 1017.9 hPa | 0 mm | - | - | - |
| 1777303743 | 21.11° C | 65% | 1017.9 hPa | 0 mm | - | - | - |
| 1777303683 | 21.11° C | 64% | 1017.9 hPa | 0 mm | - | - | - |
| 1777303623 | 21.11° C | 62% | 1017.9 hPa | 0 mm | - | - | - |
| 1777303565 | 21.11° C | 60% | 1017.9 hPa | 0 mm | - | - | - |
| 1777300803 | 20.56° C | 67% | 1018.5 hPa | 0 mm | - | - | - |
| 1777300743 | 20° C | 67% | 1018.5 hPa | 0 mm | - | - | - |
| 1777300684 | 20° C | 69% | 1018.4 hPa | 0 mm | - | - | - |
* Rain latest hour (hover to see other rain measurements)
** Current wind speed in m/s (hover to see current wind gust speed)